createdAt,value
2019-01-29T00:01:34.840Z,97991.66
2019-01-29T00:04:01.237Z,97995.56
2019-01-29T00:06:27.563Z,97999.91
2019-01-29T00:08:54.130Z,98002.62
2019-01-29T00:11:20.460Z,97999.91
2019-01-29T00:13:46.758Z,98006.86
2019-01-29T00:16:13.055Z,98015.57
2019-01-29T00:18:39.350Z,98009.45
2019-01-29T00:21:05.905Z,98024.38
2019-01-29T00:23:32.518Z,98023.80
2019-01-29T00:25:59.068Z,98031.32
2019-01-29T00:28:25.669Z,98033.54
2019-01-29T00:30:52.214Z,98036.11
2019-01-29T00:33:18.537Z,98045.19
2019-01-29T00:35:44.873Z,98044.52
2019-01-29T00:38:11.464Z,98051.58
2019-01-29T00:40:37.872Z,98035.82
2019-01-29T00:43:04.388Z,98048.38
2019-01-29T00:45:30.681Z,98061.07
2019-01-29T00:47:56.977Z,98059.25
2019-01-29T00:50:23.712Z,98067.41
2019-01-29T00:52:50.013Z,98075.11
2019-01-29T00:55:16.415Z,98089.51
2019-01-29T00:57:43.094Z,98084.23
2019-01-29T01:00:19.871Z,98088.28
2019-01-29T01:02:46.208Z,98091.53
2019-01-29T01:05:13.763Z,98116.14
2019-01-29T01:07:40.258Z,98119.61
2019-01-29T01:10:10.702Z,98066.99
2019-01-29T01:12:37.258Z,98124.98
2019-01-29T01:15:08.126Z,98128.52
2019-01-29T01:17:34.687Z,98146.77
2019-01-29T01:20:01.014Z,98142.66
2019-01-29T01:22:27.635Z,98144.56
2019-01-29T01:24:54.079Z,98140.84
2019-01-29T01:27:20.685Z,98151.64
2019-01-29T01:29:47.289Z,98156.58
2019-01-29T01:32:13.632Z,98154.14
2019-01-29T01:34:40.241Z,98157.94
2019-01-29T01:37:07.082Z,98173.45
2019-01-29T01:39:33.644Z,98170.77
2019-01-29T01:42:00.213Z,98170.88
2019-01-29T01:44:26.534Z,98168.01
2019-01-29T01:46:53.092Z,98180.55
2019-01-29T01:49:19.414Z,98216.13
2019-01-29T01:51:45.719Z,98193.15
2019-01-29T01:54:12.029Z,98196.10
2019-01-29T01:56:38.594Z,98188.30
2019-01-29T01:59:05.924Z,98209.16
2019-01-29T02:01:32.502Z,98201.57
2019-01-29T02:03:59.064Z,98207.84
2019-01-29T02:06:25.399Z,98199.75
2019-01-29T02:08:51.726Z,98212.17
2019-01-29T02:11:18.158Z,98218.83
2019-01-29T02:13:44.732Z,98207.67
2019-01-29T02:16:11.287Z,98216.28
2019-01-29T02:18:37.829Z,98231.70
2019-01-29T02:21:04.393Z,98234.53
2019-01-29T02:23:30.711Z,98239.45
2019-01-29T02:25:57.002Z,98251.73
2019-01-29T02:28:23.330Z,98244.11
2019-01-29T02:30:49.629Z,98245.55
2019-01-29T02:33:16.209Z,98244.34
2019-01-29T02:35:42.541Z,98257.70
2019-01-29T02:38:08.834Z,98258.52
2019-01-29T02:40:35.415Z,98251.58
2019-01-29T02:43:01.757Z,98246.69
2019-01-29T02:45:28.173Z,98277.86
2019-01-29T02:47:56.538Z,98272.39
2019-01-29T02:50:22.863Z,98276.70
2019-01-29T02:52:49.291Z,98276.38
2019-01-29T02:55:16.158Z,98284.66
2019-01-29T02:57:42.482Z,98292.05
2019-01-29T03:00:15.952Z,98285.33
2019-01-29T03:02:42.244Z,98290.28
2019-01-29T03:05:11.786Z,98290.74
2019-01-29T03:07:38.399Z,98294.09
2019-01-29T03:10:10.041Z,98311.26
2019-01-29T03:12:36.613Z,98306.72
2019-01-29T03:15:08.264Z,98313.89
2019-01-29T03:17:34.846Z,98328.62
2019-01-29T03:20:01.134Z,98331.31
2019-01-29T03:22:27.695Z,98323.57
2019-01-29T03:24:53.997Z,98344.69
2019-01-29T03:27:20.580Z,98354.63
2019-01-29T03:29:46.878Z,98354.55
2019-01-29T03:32:13.174Z,98361.64
2019-01-29T03:34:39.480Z,98362.37
2019-01-29T03:37:06.034Z,98376.12
2019-01-29T03:39:32.382Z,98371.49
2019-01-29T03:41:58.692Z,98365.44
2019-01-29T03:44:25.335Z,98378.69
2019-01-29T03:46:51.615Z,98383.59
2019-01-29T03:49:17.959Z,98393.93
2019-01-29T03:51:44.259Z,98387.86
2019-01-29T03:54:10.582Z,98389.39
2019-01-29T03:56:36.899Z,98391.03
2019-01-29T03:59:03.569Z,98402.08
2019-01-29T04:01:29.895Z,98406.02
2019-01-29T04:03:56.204Z,98420.20
2019-01-29T04:06:22.775Z,98410.34
2019-01-29T04:08:49.324Z,98419.17
2019-01-29T04:11:15.621Z,98412.34
2019-01-29T04:13:41.947Z,98424.80
2019-01-29T04:16:08.353Z,98428.86
2019-01-29T04:18:34.942Z,98432.81
2019-01-29T04:21:01.496Z,98436.41
2019-01-29T04:23:28.106Z,98444.52
2019-01-29T04:25:54.681Z,98449.39
2019-01-29T04:28:21.021Z,98468.20
2019-01-29T04:30:47.368Z,98458.72
2019-01-29T04:33:13.944Z,98461.75
2019-01-29T04:35:40.595Z,98473.11
2019-01-29T04:38:07.111Z,98475.96
2019-01-29T04:40:33.692Z,98479.72
2019-01-29T04:43:00.329Z,98490.70
2019-01-29T04:45:26.932Z,98484.14
2019-01-29T04:47:53.531Z,98500.81
2019-01-29T04:50:20.490Z,98494.52
2019-01-29T04:52:46.820Z,98493.28
2019-01-29T04:55:15.661Z,98500.58
2019-01-29T04:57:41.948Z,98505.72
2019-01-29T05:00:13.181Z,98499.09
2019-01-29T05:02:39.487Z,98498.65
2019-01-29T05:05:08.927Z,98506.94
2019-01-29T05:07:35.241Z,98507.94
2019-01-29T05:10:02.182Z,98511.09
2019-01-29T05:12:28.492Z,98512.08
2019-01-29T05:14:54.813Z,98515.33
2019-01-29T05:17:21.167Z,98508.39
2019-01-29T05:19:47.748Z,98520.69
2019-01-29T05:22:14.361Z,98526.94
2019-01-29T05:24:40.969Z,98529.80
2019-01-29T05:27:07.316Z,98532.20
2019-01-29T05:29:33.909Z,98534.48
2019-01-29T05:32:01.235Z,98534.97
2019-01-29T05:34:27.805Z,98536.06
2019-01-29T05:36:54.145Z,98539.57
2019-01-29T05:39:20.491Z,98555.52
2019-01-29T05:41:46.784Z,98547.77
2019-01-29T05:44:13.400Z,98546.28
2019-01-29T05:46:39.729Z,98548.16
2019-01-29T05:49:06.266Z,98563.13
2019-01-29T05:51:32.831Z,98560.64
2019-01-29T05:53:59.401Z,98568.78
2019-01-29T05:56:25.732Z,98567.97
2019-01-29T05:58:52.056Z,98566.36
2019-01-29T06:01:18.437Z,98573.48
2019-01-29T06:03:44.756Z,98581.73
2019-01-29T06:06:11.328Z,98583.27
2019-01-29T06:08:37.658Z,98593.05
2019-01-29T06:11:04.005Z,98586.45
2019-01-29T06:13:30.351Z,98593.95
2019-01-29T06:15:56.645Z,98600.15
2019-01-29T06:18:22.984Z,98599.41
2019-01-29T06:20:49.348Z,98603.86
2019-01-29T06:23:15.624Z,98597.58
2019-01-29T06:25:41.978Z,98598.95
2019-01-29T06:28:08.302Z,98612.99
2019-01-29T06:30:34.626Z,98610.61
2019-01-29T06:33:00.948Z,98613.45
2019-01-29T06:35:27.240Z,98610.95
2019-01-29T06:37:53.971Z,98611.95
2019-01-29T06:40:23.478Z,98626.09
2019-01-29T06:42:51.127Z,98633.66
2019-01-29T06:45:20.303Z,98622.13
2019-01-29T06:47:47.015Z,98629.79
2019-01-29T06:50:17.123Z,98640.33
2019-01-29T06:52:43.414Z,98650.09
2019-01-29T06:55:14.258Z,98639.47
2019-01-29T06:57:40.825Z,98647.13
2019-01-29T07:00:17.723Z,98656.19
2019-01-29T07:02:44.587Z,98659.03
2019-01-29T07:05:11.524Z,98667.91
2019-01-29T07:07:37.863Z,98659.05
2019-01-29T07:10:09.721Z,98665.34
2019-01-29T07:12:36.189Z,98672.97
2019-01-29T07:15:07.389Z,98669.65
2019-01-29T07:17:34.102Z,98674.92
2019-01-29T07:20:00.415Z,98682.49
2019-01-29T07:22:27.021Z,98677.69
2019-01-29T07:24:53.328Z,98678.81
2019-01-29T07:27:19.663Z,98686.27
2019-01-29T07:29:46.063Z,98680.73
2019-01-29T07:32:12.406Z,98691.70
2019-01-29T07:34:38.721Z,98701.77
2019-01-29T07:37:05.059Z,98702.99
2019-01-29T07:39:31.676Z,98699.48
2019-01-29T07:41:58.237Z,98705.39
2019-01-29T07:44:24.835Z,98704.09
2019-01-29T07:46:51.159Z,98707.59
2019-01-29T07:49:17.529Z,98711.77
2019-01-29T07:51:43.856Z,98714.42
2019-01-29T07:54:10.201Z,98715.27
2019-01-29T07:56:36.769Z,98725.69
2019-01-29T07:59:03.438Z,98722.48
2019-01-29T08:01:30.013Z,98714.61
2019-01-29T08:03:57.577Z,98731.13
2019-01-29T08:06:23.909Z,98732.05
2019-01-29T08:08:50.249Z,98737.14
2019-01-29T08:11:16.728Z,98738.77
2019-01-29T08:13:43.023Z,98744.22
2019-01-29T08:16:09.488Z,98749.61
2019-01-29T08:18:35.795Z,98745.38
2019-01-29T08:21:02.393Z,98755.64
2019-01-29T08:23:28.981Z,98753.82
2019-01-29T08:25:55.301Z,98756.70
2019-01-29T08:28:21.902Z,98754.73
2019-01-29T08:30:48.474Z,98762.56
2019-01-29T08:33:15.123Z,98712.57
2019-01-29T08:35:41.718Z,98759.66
2019-01-29T08:38:09.382Z,98768.15
2019-01-29T08:40:35.952Z,98767.98
2019-01-29T08:43:02.294Z,98769.27
2019-01-29T08:45:28.894Z,98779.38
2019-01-29T08:47:55.501Z,98779.14
2019-01-29T08:50:24.813Z,98776.27
2019-01-29T08:52:51.136Z,98788.22
2019-01-29T08:55:17.808Z,98799.61
2019-01-29T08:57:44.119Z,98789.89
2019-01-29T09:00:15.129Z,98789.97
2019-01-29T09:02:42.294Z,98794.31
2019-01-29T09:05:09.353Z,98788.30
2019-01-29T09:07:35.682Z,98789.97
2019-01-29T09:10:07.125Z,98786.80
2019-01-29T09:12:33.462Z,98793.94
2019-01-29T09:14:59.771Z,98792.39
2019-01-29T09:17:26.184Z,98803.36
2019-01-29T09:19:52.763Z,98804.84
2019-01-29T09:22:19.103Z,98808.86
2019-01-29T09:24:45.710Z,98807.70
2019-01-29T09:27:12.294Z,98806.88
2019-01-29T09:29:38.908Z,98803.99
2019-01-29T09:32:05.566Z,98804.72
2019-01-29T09:34:31.918Z,98800.69
2019-01-29T09:36:58.453Z,98807.01
2019-01-29T09:39:25.062Z,98803.86
2019-01-29T09:41:51.462Z,98802.72
2019-01-29T09:44:17.784Z,98812.80
2019-01-29T09:46:44.088Z,98818.00
2019-01-29T09:49:11.287Z,98819.97
2019-01-29T09:51:37.708Z,98823.12
2019-01-29T09:54:04.482Z,98830.70
2019-01-29T09:56:30.884Z,98830.84
2019-01-29T09:58:57.197Z,98830.64
2019-01-29T10:01:23.894Z,98846.14
2019-01-29T10:03:50.255Z,98827.69
2019-01-29T10:06:16.572Z,98823.84
2019-01-29T10:08:42.897Z,98831.08
2019-01-29T10:11:09.537Z,98833.89
2019-01-29T10:13:36.136Z,98838.20
2019-01-29T10:16:03.409Z,98833.34
2019-01-29T10:18:29.723Z,98825.57
2019-01-29T10:20:56.117Z,98832.95
2019-01-29T10:23:22.690Z,98824.71
2019-01-29T10:25:49.015Z,98827.13
2019-01-29T10:28:15.590Z,98819.52
2019-01-29T10:30:42.208Z,98828.48
2019-01-29T10:33:08.495Z,98819.67
2019-01-29T10:35:34.938Z,98824.86
2019-01-29T10:38:01.499Z,98821.02
2019-01-29T10:40:27.943Z,98827.22
2019-01-29T10:42:56.252Z,98822.09
2019-01-29T10:45:25.182Z,98822.88
2019-01-29T10:47:51.785Z,98822.47
2019-01-29T10:50:24.561Z,98817.69
2019-01-29T10:52:51.508Z,98814.28
2019-01-29T10:55:18.148Z,98821.06
2019-01-29T10:57:45.516Z,98814.06
2019-01-29T11:00:22.743Z,98810.97
2019-01-29T11:02:49.276Z,98820.45
2019-01-29T11:05:18.599Z,98806.11
2019-01-29T11:07:45.131Z,98822.82
2019-01-29T11:10:15.001Z,98821.95
2019-01-29T11:12:41.605Z,98820.98
2019-01-29T11:15:13.575Z,98816.44
2019-01-29T11:17:39.895Z,98809.93
2019-01-29T11:20:16.832Z,98812.94
2019-01-29T11:22:43.768Z,98810.41
2019-01-29T11:25:20.271Z,98814.95
2019-01-29T11:27:46.835Z,98808.19
2019-01-29T11:30:17.528Z,98807.47
2019-01-29T11:32:43.843Z,98812.89
2019-01-29T11:35:10.532Z,98801.05
2019-01-29T11:37:37.130Z,98800.14
2019-01-29T11:40:20.120Z,98795.02
2019-01-29T11:42:51.865Z,98804.40
2019-01-29T11:45:38.371Z,98800.86
2019-01-29T11:48:04.693Z,98805.31
2019-01-29T11:50:31.266Z,98803.16
2019-01-29T11:52:57.637Z,98809.80
2019-01-29T11:55:24.059Z,98809.46
2019-01-29T11:57:50.629Z,98815.95
2019-01-29T12:00:29.015Z,98809.34
2019-01-29T12:02:55.323Z,98815.59
2019-01-29T12:05:21.716Z,98806.53
2019-01-29T12:07:48.002Z,98806.02
2019-01-29T12:10:14.748Z,98814.11
2019-01-29T12:12:41.032Z,98814.63
2019-01-29T12:15:15.259Z,98817.16
2019-01-29T12:17:41.824Z,98810.11
2019-01-29T12:20:13.091Z,98816.31
2019-01-29T12:22:39.760Z,98816.74
2019-01-29T12:25:06.750Z,98813.33
2019-01-29T12:27:33.184Z,98807.02
2019-01-29T12:29:59.473Z,98811.15
2019-01-29T12:32:26.068Z,98814.85
2019-01-29T12:34:52.649Z,98809.83
2019-01-29T12:37:21.098Z,98808.02
2019-01-29T12:39:47.389Z,98806.73
2019-01-29T12:42:13.947Z,98801.11
2019-01-29T12:44:40.988Z,98802.41
2019-01-29T12:47:07.285Z,98802.62
2019-01-29T12:49:33.932Z,98806.28
2019-01-29T12:52:02.938Z,98801.88
2019-01-29T12:54:29.535Z,98802.13
2019-01-29T12:56:56.099Z,98794.61
2019-01-29T12:59:22.704Z,98801.14
2019-01-29T13:01:49.302Z,98792.52
2019-01-29T13:04:18.436Z,98799.94
2019-01-29T13:06:45.015Z,98801.14
2019-01-29T13:09:11.798Z,98804.42
2019-01-29T13:11:38.387Z,98798.86
2019-01-29T13:14:04.684Z,98802.08
2019-01-29T13:16:31.289Z,98796.85
2019-01-29T13:18:57.878Z,98794.16
2019-01-29T13:21:24.210Z,98792.85
2019-01-29T13:23:50.849Z,98799.81
2019-01-29T13:26:17.175Z,98802.99
2019-01-29T13:28:43.752Z,98801.88
2019-01-29T13:31:10.083Z,98798.63
2019-01-29T13:33:36.401Z,98799.45
2019-01-29T13:36:05.897Z,98805.17
2019-01-29T13:38:32.219Z,98803.09
2019-01-29T13:40:58.523Z,98801.64
2019-01-29T13:43:25.094Z,98805.02
2019-01-29T13:45:51.670Z,98804.42
2019-01-29T13:48:19.902Z,98803.70
2019-01-29T13:50:49.807Z,98803.31
2019-01-29T13:53:16.151Z,98794.16
2019-01-29T13:55:42.775Z,98793.35
2019-01-29T13:58:09.596Z,98800.11
2019-01-29T14:00:38.894Z,98793.02
2019-01-29T14:03:07.931Z,98802.02
2019-01-29T14:05:34.315Z,98797.64
2019-01-29T14:08:00.651Z,98785.33
2019-01-29T14:10:27.190Z,98795.58
2019-01-29T14:12:54.014Z,98794.05
2019-01-29T14:15:26.986Z,98797.45
2019-01-29T14:17:53.456Z,98795.34
2019-01-29T14:20:20.091Z,98795.92
2019-01-29T14:22:46.676Z,98796.98
2019-01-29T14:25:13.395Z,98799.88
2019-01-29T14:27:39.767Z,98799.14
2019-01-29T14:30:26.096Z,98799.67
2019-01-29T14:32:52.847Z,98801.07
2019-01-29T14:35:19.160Z,98796.46
2019-01-29T14:38:00.152Z,98790.31
2019-01-29T14:40:27.821Z,98800.59
2019-01-29T14:42:54.483Z,98797.77
2019-01-29T14:45:23.937Z,98793.45
2019-01-29T14:47:50.559Z,98793.69
2019-01-29T14:50:17.346Z,98795.83
2019-01-29T14:52:43.688Z,98795.12
2019-01-29T14:55:10.905Z,98788.44
2019-01-29T14:57:37.492Z,98786.14
2019-01-29T15:00:09.877Z,98787.17
2019-01-29T15:02:36.472Z,98787.20
2019-01-29T15:05:06.206Z,98788.52
2019-01-29T15:07:32.502Z,98787.40
2019-01-29T15:09:59.190Z,98782.50
2019-01-29T15:12:25.596Z,98774.77
2019-01-29T15:14:52.189Z,98779.03
2019-01-29T15:17:26.035Z,98780.20
2019-01-29T15:19:52.381Z,98786.42
2019-01-29T15:22:19.029Z,98787.42
2019-01-29T15:24:46.276Z,98782.22
2019-01-29T15:27:13.867Z,98781.16
2019-01-29T15:29:40.198Z,98776.73
2019-01-29T15:32:06.773Z,98778.38
2019-01-29T15:34:33.367Z,98776.20
2019-01-29T15:36:59.683Z,98777.77
2019-01-29T15:39:26.268Z,98779.44
2019-01-29T15:41:52.599Z,98782.92
2019-01-29T15:44:19.181Z,98783.08
2019-01-29T15:46:45.899Z,98773.07
2019-01-29T15:49:12.225Z,98783.91
2019-01-29T15:51:38.799Z,98777.22
2019-01-29T15:54:05.217Z,98779.14
2019-01-29T15:56:31.732Z,98769.83
2019-01-29T15:58:58.064Z,98772.45
2019-01-29T16:01:24.657Z,98770.35
2019-01-29T16:03:50.990Z,98771.38
2019-01-29T16:06:17.429Z,98771.22
2019-01-29T16:08:44.027Z,98771.00
2019-01-29T16:11:10.647Z,98767.91
2019-01-29T16:13:37.241Z,98772.09
2019-01-29T16:16:03.674Z,98769.61
2019-01-29T16:18:29.997Z,98769.45
2019-01-29T16:20:56.578Z,98777.61
2019-01-29T16:23:23.140Z,98775.94
2019-01-29T16:25:49.766Z,98773.81
2019-01-29T16:28:16.350Z,98769.48
2019-01-29T16:30:42.937Z,98777.34
2019-01-29T16:33:09.539Z,98769.70
2019-01-29T16:35:41.679Z,98776.17
2019-01-29T16:38:08.367Z,98777.34
2019-01-29T16:40:38.653Z,98774.30
2019-01-29T16:43:05.097Z,98772.08
2019-01-29T16:45:33.774Z,98772.63
2019-01-29T16:48:01.786Z,98770.34
2019-01-29T16:50:29.351Z,98772.47
2019-01-29T16:52:55.990Z,98773.05
2019-01-29T16:55:24.397Z,98769.97
2019-01-29T16:57:51.313Z,98775.35
2019-01-29T17:00:28.763Z,98769.62
2019-01-29T17:02:55.963Z,98771.64
2019-01-29T17:05:22.848Z,98777.58
2019-01-29T17:07:49.177Z,98776.11
2019-01-29T17:10:22.823Z,98776.58
2019-01-29T17:12:49.273Z,98783.62
2019-01-29T17:15:25.182Z,98777.33
2019-01-29T17:17:51.599Z,98780.20
2019-01-29T17:20:22.038Z,98776.48
2019-01-29T17:22:48.591Z,98774.56
2019-01-29T17:25:16.399Z,98770.86
2019-01-29T17:27:42.709Z,98770.02
2019-01-29T17:30:17.203Z,98773.90
2019-01-29T17:32:43.563Z,98772.44
2019-01-29T17:35:10.167Z,98776.88
2019-01-29T17:37:36.532Z,98769.94
2019-01-29T17:40:11.812Z,98778.05
2019-01-29T17:42:38.379Z,98777.64
2019-01-29T17:45:11.244Z,98776.55
2019-01-29T17:47:37.561Z,98774.42
2019-01-29T17:50:12.160Z,98774.42
2019-01-29T17:52:38.927Z,98773.59
2019-01-29T17:55:10.519Z,98766.73
2019-01-29T17:57:37.321Z,98770.79
2019-01-29T18:00:09.425Z,98764.52
2019-01-29T18:02:36.078Z,98762.10
2019-01-29T18:05:04.399Z,98760.25
2019-01-29T18:07:30.805Z,98758.14
2019-01-29T18:09:57.454Z,98759.53
2019-01-29T18:12:24.040Z,98754.27
2019-01-29T18:14:50.741Z,98755.92
2019-01-29T18:17:17.093Z,98757.48
2019-01-29T18:19:43.718Z,98760.07
2019-01-29T18:22:10.054Z,98762.98
2019-01-29T18:24:36.669Z,98757.68
2019-01-29T18:27:03.265Z,98758.02
2019-01-29T18:29:29.921Z,98756.73
2019-01-29T18:31:56.572Z,98758.02
2019-01-29T18:34:22.991Z,98754.91
2019-01-29T18:36:50.988Z,98747.31
2019-01-29T18:39:17.509Z,98745.60
2019-01-29T18:41:43.870Z,98742.67
2019-01-29T18:44:11.162Z,98750.87
2019-01-29T18:46:37.915Z,98750.14
2019-01-29T18:49:04.314Z,98746.55
2019-01-29T18:51:30.669Z,98745.41
2019-01-29T18:53:57.428Z,98750.47
2019-01-29T18:56:23.789Z,98741.70
2019-01-29T18:58:50.442Z,98747.38
2019-01-29T19:01:16.809Z,98749.20
2019-01-29T19:03:43.264Z,98747.94
2019-01-29T19:06:09.597Z,98752.08
2019-01-29T19:08:35.976Z,98745.78
2019-01-29T19:11:02.275Z,98746.86
2019-01-29T19:13:28.887Z,98739.89
2019-01-29T19:15:55.294Z,98741.55
2019-01-29T19:18:21.885Z,98744.67
2019-01-29T19:20:48.283Z,98737.16
2019-01-29T19:23:14.602Z,98736.81
2019-01-29T19:25:40.957Z,98732.38
2019-01-29T19:28:07.547Z,98735.22
2019-01-29T19:30:34.271Z,98720.87
2019-01-29T19:33:00.596Z,98724.09
2019-01-29T19:35:27.412Z,98721.22
2019-01-29T19:37:54.090Z,98722.01
2019-01-29T19:40:20.695Z,98720.29
2019-01-29T19:42:47.403Z,98717.62
2019-01-29T19:45:20.886Z,98718.51
2019-01-29T19:47:47.468Z,98718.53
2019-01-29T19:50:19.361Z,98717.05
2019-01-29T19:52:46.187Z,98722.41
2019-01-29T19:55:12.883Z,98718.51
2019-01-29T19:57:39.479Z,98711.52
2019-01-29T20:00:11.536Z,98706.89
2019-01-29T20:02:37.941Z,98705.52
2019-01-29T20:05:08.204Z,98712.45
2019-01-29T20:07:34.820Z,98709.22
2019-01-29T20:10:01.410Z,98715.59
2019-01-29T20:12:28.163Z,98711.42
2019-01-29T20:14:54.485Z,98712.45
2019-01-29T20:17:21.287Z,98710.22
2019-01-29T20:19:47.618Z,98699.09
2019-01-29T20:22:14.217Z,98703.02
2019-01-29T20:24:40.545Z,98699.95
2019-01-29T20:27:06.890Z,98702.80
2019-01-29T20:29:33.255Z,98691.31
2019-01-29T20:31:59.586Z,98696.02
2019-01-29T20:34:26.310Z,98680.88
2019-01-29T20:36:52.793Z,98690.79
2019-01-29T20:39:19.191Z,98686.72
2019-01-29T20:41:45.575Z,98681.11
2019-01-29T20:44:12.159Z,98679.17
2019-01-29T20:46:38.855Z,98681.22
2019-01-29T20:49:05.265Z,98675.41
2019-01-29T20:51:31.876Z,98675.65
2019-01-29T20:53:58.391Z,98678.03
2019-01-29T20:56:24.708Z,98674.63
2019-01-29T20:58:52.858Z,98671.61
2019-01-29T21:01:19.385Z,98666.80
2019-01-29T21:03:45.773Z,98664.89
2019-01-29T21:06:12.099Z,98657.60
2019-01-29T21:08:40.440Z,98655.55
2019-01-29T21:11:07.076Z,98652.66
2019-01-29T21:13:33.758Z,98652.86
2019-01-29T21:16:00.125Z,98650.42
2019-01-29T21:18:26.694Z,98644.23
2019-01-29T21:20:57.259Z,98644.77
2019-01-29T21:23:21.319Z,98638.13
2019-01-29T21:25:47.895Z,98636.26
2019-01-29T21:28:14.217Z,98633.94
2019-01-29T21:30:40.667Z,98630.80
2019-01-29T21:33:08.144Z,98628.93
2019-01-29T21:35:34.583Z,98626.09
2019-01-29T21:38:01.045Z,98632.03
2019-01-29T21:40:27.521Z,98628.19
2019-01-29T21:42:54.418Z,98627.36
2019-01-29T21:45:23.031Z,98622.99
2019-01-29T21:47:50.952Z,98615.38
2019-01-29T21:50:26.062Z,98622.95
2019-01-29T21:52:52.923Z,98628.08
2019-01-29T21:55:19.666Z,98617.58
2019-01-29T21:57:46.217Z,98603.77
2019-01-29T22:00:23.954Z,98610.02
2019-01-29T22:02:51.514Z,98609.46
2019-01-29T22:05:18.211Z,98605.89
2019-01-29T22:07:44.550Z,98606.99
2019-01-29T22:10:13.941Z,98598.84
2019-01-29T22:12:40.820Z,98612.11
2019-01-29T22:15:19.241Z,98603.30
2019-01-29T22:17:45.965Z,98597.87
2019-01-29T22:20:16.406Z,98596.65
2019-01-29T22:22:42.715Z,98594.02
2019-01-29T22:25:16.725Z,98593.94
2019-01-29T22:27:43.254Z,98589.67
2019-01-29T22:30:32.635Z,98591.62
2019-01-29T22:32:59.071Z,98594.34
2019-01-29T22:35:25.622Z,98587.62
2019-01-29T22:37:52.238Z,98583.72
2019-01-29T22:40:29.538Z,98580.05
2019-01-29T22:42:56.703Z,98581.23
2019-01-29T22:45:23.333Z,98580.69
2019-01-29T22:47:49.932Z,98574.17
2019-01-29T22:50:23.943Z,98578.41
2019-01-29T22:52:50.529Z,98582.17
2019-01-29T22:55:16.995Z,98572.38
2019-01-29T22:57:43.554Z,98568.44
2019-01-29T23:00:51.710Z,98572.83
2019-01-29T23:03:25.092Z,98568.54
2019-01-29T23:06:13.812Z,98565.33
2019-01-29T23:08:40.387Z,98562.10
2019-01-29T23:11:06.961Z,98557.94
2019-01-29T23:13:33.543Z,98558.31
2019-01-29T23:15:59.847Z,98555.61
2019-01-29T23:18:26.422Z,98557.09
2019-01-29T23:20:52.728Z,98554.70
2019-01-29T23:23:19.315Z,98554.14
2019-01-29T23:25:45.956Z,98553.42
2019-01-29T23:28:12.295Z,98556.11
2019-01-29T23:30:38.923Z,98554.89
2019-01-29T23:33:05.594Z,98546.60
2019-01-29T23:35:32.173Z,98545.18
2019-01-29T23:37:58.502Z,98545.77
2019-01-29T23:40:24.851Z,98539.78
2019-01-29T23:42:51.280Z,98535.72
2019-01-29T23:45:17.883Z,98532.59
2019-01-29T23:47:44.217Z,98532.52
2019-01-29T23:50:15.269Z,98530.25
2019-01-29T23:52:41.702Z,98527.23
2019-01-29T23:55:09.250Z,98528.38
2019-01-29T23:57:35.593Z,98522.39
